Terminal Aerodrome Forecast
Issued by NWS

Home | Current Version | Previous Version | Text Only | Print | Product List | Glossary On
Versions: 1 2 3 4 5 6 7 8 9 10 11 12 13 14 15 16 17 18 19 20 21 22 23 24 25 26 27 28 29 30 31 32 33 34 35
014
FTUS45 KBOU 230546
TAFBJC
TAF
KBJC 230546Z 2306/2406 35010KT P6SM SCT060 BKN090
     FM231100 05010KT P6SM SCT020 BKN060
      TEMPO 2314/2318 BKN020
     FM231800 07012KT P6SM BKN020 OVC050
      TEMPO 2318/2321 -SHRA
     FM232100 02010KT P6SM -RA BKN012 OVC025
     FM240300 02010KT 3SM -RA BR OVC008=

USA.gov is the U.S. government's official web portal to all federal, state and local government web resources and services.